ADDS TAF Data INFO
IDs: Format: Raw Decoded Include METARs

Data at: 1526 UTC 23 Jun 2018

KPUB 231453Z 13006KT 10SM CLR 22/11 A2998 RMK AO2 SLP091 T02170111 53002

KPUB 231120Z 2312/2412 VRB06KT P6SM FEW200
  FM231700 15007KT P6SM SCT200
  FM231900 13012KT P6SM SCT100 SCT200
  FM240200 10008KT P6SM FEW120 SCT200
  FM240800 36015G25KT P6SM SCT040 SCT150